createdAt,value
2023-04-25T00:01:50.744Z,7
2023-04-25T00:06:56.830Z,6.9
2023-04-25T00:12:02.945Z,6.8
2023-04-25T00:17:09.044Z,6.6
2023-04-25T00:22:15.135Z,6.5
2023-04-25T00:27:21.243Z,6.3
2023-04-25T00:32:27.348Z,5.9
2023-04-25T00:37:33.424Z,5.7
2023-04-25T00:42:39.534Z,5.9
2023-04-25T00:47:45.655Z,6.1
2023-04-25T00:52:51.726Z,6.1
2023-04-25T00:57:57.820Z,6.1
2023-04-25T01:03:03.923Z,6
2023-04-25T01:08:09.037Z,6
2023-04-25T01:13:15.150Z,6
2023-04-25T01:18:21.224Z,6.1
2023-04-25T01:23:27.324Z,6.2
2023-04-25T01:28:33.415Z,6.3
2023-04-25T01:33:39.572Z,6.4
2023-04-25T01:38:45.615Z,6.4
2023-04-25T01:43:51.718Z,6.5
2023-04-25T01:48:57.819Z,6.5
2023-04-25T01:54:03.909Z,6.5
2023-04-25T01:59:10.014Z,6.6
2023-04-25T02:04:16.106Z,6.7
2023-04-25T02:09:22.206Z,6.6
2023-04-25T02:14:27.332Z,6.6
2023-04-25T02:19:33.432Z,6.5
2023-04-25T02:24:39.514Z,6.5
2023-04-25T02:29:45.616Z,6.4
2023-04-25T02:34:51.760Z,6.3
2023-04-25T02:39:57.885Z,6.2
2023-04-25T02:45:03.912Z,6.1
2023-04-25T02:50:10.018Z,6.2
2023-04-25T02:55:16.142Z,6.1
2023-04-25T03:00:22.220Z,6.1
2023-04-25T03:05:28.296Z,6.1
2023-04-25T03:10:34.416Z,6
2023-04-25T03:15:40.511Z,6
2023-04-25T03:20:45.646Z,6.1
2023-04-25T03:25:51.714Z,5.9
2023-04-25T03:30:57.794Z,5.7
2023-04-25T03:36:03.923Z,5.6
2023-04-25T03:41:10.000Z,5.5
2023-04-25T03:46:16.119Z,5.5
2023-04-25T03:51:22.202Z,5.7
2023-04-25T03:56:28.304Z,5.7
2023-04-25T04:01:34.406Z,5.7
2023-04-25T04:06:40.502Z,5.8
2023-04-25T04:11:46.590Z,5.8
2023-04-25T04:16:52.693Z,5.7
2023-04-25T04:21:58.788Z,5.8
2023-04-25T04:27:03.918Z,5.9
2023-04-25T04:32:10.055Z,5.9
2023-04-25T04:37:16.169Z,5.9
2023-04-25T04:42:22.224Z,5.8
2023-04-25T04:47:28.309Z,5.8
2023-04-25T04:52:34.394Z,5.9
2023-04-25T04:57:40.482Z,5.9
2023-04-25T05:02:46.642Z,6.1
2023-04-25T05:07:52.684Z,6.2
2023-04-25T05:12:58.785Z,6.4
2023-04-25T05:18:04.888Z,6.6
2023-04-25T05:23:10.975Z,6.7
2023-04-25T05:28:17.098Z,6.9
2023-04-25T05:33:22.195Z,7.1
2023-04-25T05:38:28.301Z,7.2
2023-04-25T05:43:34.394Z,7.4
2023-04-25T05:48:40.493Z,7.7
2023-04-25T05:53:46.612Z,8.1
2023-04-25T05:58:52.687Z,8.6
2023-04-25T06:03:58.799Z,8.7
2023-04-25T06:09:04.898Z,8.9
2023-04-25T06:14:10.983Z,8.9
2023-04-25T06:19:17.071Z,8.9
2023-04-25T06:24:23.170Z,9
2023-04-25T06:29:29.258Z,9.3
2023-04-25T06:34:35.361Z,9.5
2023-04-25T06:39:40.471Z,9.5
2023-04-25T06:44:46.570Z,9.4
2023-04-25T06:49:52.715Z,9.2
2023-04-25T06:54:58.767Z,9.3
2023-04-25T07:00:04.895Z,9.2
2023-04-25T07:05:10.960Z,9
2023-04-25T07:10:17.060Z,8.8
2023-04-25T07:15:23.157Z,8.8
2023-04-25T07:20:29.240Z,8.6
2023-04-25T07:25:35.337Z,8.4
2023-04-25T07:30:41.467Z,8.5
2023-04-25T07:35:47.538Z,8.8
2023-04-25T07:40:53.648Z,9.3
2023-04-25T07:45:58.766Z,9.7
2023-04-25T07:51:04.853Z,10.3
2023-04-25T07:56:10.995Z,10.3
2023-04-25T08:01:17.058Z,10.5
2023-04-25T08:06:23.139Z,10.8
2023-04-25T08:11:29.256Z,10.9
2023-04-25T08:16:35.403Z,10.8
2023-04-25T08:21:41.447Z,10.7
2023-04-25T08:26:47.519Z,11
2023-04-25T08:31:53.647Z,11.9
2023-04-25T08:36:59.722Z,11.8
2023-04-25T08:42:05.880Z,10.8
2023-04-25T08:47:12.136Z,10.2
2023-04-25T08:52:17.227Z,10
2023-04-25T08:57:23.294Z,10.1
2023-04-25T09:02:29.223Z,9.8
2023-04-25T09:07:35.471Z,9.8
2023-04-25T09:12:41.615Z,9.7
2023-04-25T09:17:47.693Z,9.9
2023-04-25T09:22:53.602Z,10.4
2023-04-25T09:27:59.866Z,10.3
2023-04-25T09:33:05.794Z,10.1
2023-04-25T09:38:12.109Z,10.6
2023-04-25T09:43:17.998Z,11.1
2023-04-25T09:48:24.168Z,11.5
2023-04-25T09:53:30.334Z,11.1
2023-04-25T09:58:35.367Z,10.6
2023-04-25T10:03:41.393Z,10.5
2023-04-25T10:08:47.533Z,10.6
2023-04-25T10:13:53.575Z,10.6
2023-04-25T10:18:59.700Z,10.5
2023-04-25T10:24:05.794Z,10.4
2023-04-25T10:29:11.911Z,10.4
2023-04-25T10:34:17.989Z,10.3
2023-04-25T10:39:24.066Z,10.1
2023-04-25T10:44:30.193Z,9.9
2023-04-25T10:49:36.453Z,10
2023-04-25T10:54:42.675Z,10.1
2023-04-25T10:59:48.467Z,10.2
2023-04-25T11:04:53.731Z,9.8
2023-04-25T11:09:59.884Z,9.9
2023-04-25T11:15:05.965Z,9.9
2023-04-25T11:20:11.904Z,9.8
2023-04-25T11:25:18.211Z,9.7
2023-04-25T11:30:24.284Z,10.3
2023-04-25T11:35:30.367Z,11.7
2023-04-25T11:40:36.396Z,12
2023-04-25T11:45:42.484Z,11.7
2023-04-25T11:50:48.626Z,10.9
2023-04-25T11:55:55.166Z,11.2
2023-04-25T12:01:00.734Z,11.1
2023-04-25T12:06:06.870Z,10.9
2023-04-25T12:11:12.034Z,10.5
2023-04-25T12:16:17.965Z,10.5
2023-04-25T12:21:24.223Z,10.3
2023-04-25T12:26:30.297Z,10.1
2023-04-25T12:31:36.231Z,10
2023-04-25T12:36:42.495Z,10
2023-04-25T12:41:48.522Z,10.2
2023-04-25T12:46:54.523Z,11
2023-04-25T12:52:00.789Z,12.5
2023-04-25T12:57:06.896Z,12.8
2023-04-25T13:02:12.807Z,12.4
2023-04-25T13:07:19.195Z,12.1
2023-04-25T13:12:25.169Z,12.2
2023-04-25T13:17:30.295Z,13.1
2023-04-25T13:22:36.411Z,12.9
2023-04-25T13:27:42.534Z,12.3
2023-04-25T13:32:48.501Z,11.8
2023-04-25T13:37:54.483Z,11.6
2023-04-25T13:43:00.592Z,11.5
2023-04-25T13:48:05.753Z,13.1
2023-04-25T13:53:11.806Z,13.4
2023-04-25T13:58:17.944Z,12.7
2023-04-25T14:03:24.036Z,13.1
2023-04-25T14:08:30.089Z,12.1
2023-04-25T14:13:36.249Z,12.1
2023-04-25T14:18:42.331Z,11.9
2023-04-25T14:23:48.517Z,12.1
2023-04-25T14:28:54.530Z,12.5
2023-04-25T14:34:00.609Z,11.9
2023-04-25T14:39:06.686Z,11.9
2023-04-25T14:44:12.921Z,11.5
2023-04-25T14:49:18.855Z,11.1
2023-04-25T14:54:24.024Z,11
2023-04-25T14:59:30.120Z,10.9
2023-04-25T15:04:36.293Z,10.8
2023-04-25T15:09:42.269Z,10.8
2023-04-25T15:14:48.554Z,10.8
2023-04-25T15:19:54.543Z,10.8
2023-04-25T15:25:00.711Z,10.6
2023-04-25T15:30:06.720Z,10.5
2023-04-25T15:35:12.762Z,10.4
2023-04-25T15:40:18.973Z,10.5
2023-04-25T15:45:25.064Z,10.5
2023-04-25T15:50:31.139Z,10.2
2023-04-25T15:55:37.303Z,10.2
2023-04-25T16:00:42.328Z,10.1
2023-04-25T16:05:48.354Z,10.1
2023-04-25T16:10:54.483Z,10
2023-04-25T16:16:00.545Z,10.1
2023-04-25T16:21:06.779Z,10.1
2023-04-25T16:26:12.970Z,10.1
2023-04-25T16:31:18.914Z,10.2
2023-04-25T16:36:24.947Z,10.8
2023-04-25T16:41:31.046Z,11.1
2023-04-25T16:46:37.191Z,10.7
2023-04-25T16:51:43.323Z,10.4
2023-04-25T16:56:49.331Z,10.3
2023-04-25T17:01:55.403Z,10.2
2023-04-25T17:07:00.542Z,10.2
2023-04-25T17:12:06.746Z,10.1
2023-04-25T17:17:12.847Z,11.5
2023-04-25T17:22:18.917Z,10.9
2023-04-25T17:27:24.914Z,10.8
2023-04-25T17:32:31.009Z,10.3
2023-04-25T17:37:37.180Z,9.9
2023-04-25T17:42:43.215Z,9.6
2023-04-25T17:47:49.303Z,9.5
2023-04-25T17:58:01.505Z,9.3
2023-04-25T18:03:07.590Z,9.2
2023-04-25T18:08:13.687Z,9.1
2023-04-25T18:13:18.818Z,9.1
2023-04-25T18:18:24.959Z,9
2023-04-25T18:23:31.036Z,8.8
2023-04-25T18:28:37.088Z,8.7
2023-04-25T18:33:43.357Z,8.7
2023-04-25T18:38:49.334Z,8.7
2023-04-25T18:43:55.373Z,8.6
2023-04-25T18:49:01.690Z,8.6
2023-04-25T18:54:07.576Z,8.6
2023-04-25T18:59:13.675Z,8.5
2023-04-25T19:04:19.811Z,8.5
2023-04-25T19:09:25.927Z,8.3
2023-04-25T19:14:31.985Z,7.9
2023-04-25T19:19:37.123Z,7.4
2023-04-25T19:24:43.267Z,7.2
2023-04-25T19:29:49.327Z,7.1
2023-04-25T19:34:55.382Z,7
2023-04-25T19:40:01.492Z,7
2023-04-25T19:45:07.645Z,7
2023-04-25T19:50:13.754Z,6.8
2023-04-25T19:55:19.764Z,6.6
2023-04-25T20:00:25.939Z,6.5
2023-04-25T20:05:31.982Z,6.6
2023-04-25T20:10:38.061Z,6.6
2023-04-25T20:15:44.154Z,6.8
2023-04-25T20:20:50.245Z,6.8
2023-04-25T20:25:55.365Z,6.8
2023-04-25T20:31:01.638Z,6.8
2023-04-25T20:36:07.559Z,6.8
2023-04-25T20:41:13.734Z,6.9
2023-04-25T20:46:19.760Z,7
2023-04-25T20:51:25.982Z,7
2023-04-25T20:56:31.968Z,6.8
2023-04-25T21:01:38.084Z,6.8
2023-04-25T21:06:44.178Z,6.7
2023-04-25T21:11:50.313Z,6.7
2023-04-25T21:16:56.350Z,6.7
2023-04-25T21:22:02.463Z,6.7
2023-04-25T21:27:08.613Z,6.7
2023-04-25T21:32:13.667Z,6.5
2023-04-25T21:37:19.751Z,6.4
2023-04-25T21:42:25.925Z,6.3
2023-04-25T21:47:31.991Z,6.2
2023-04-25T21:52:38.069Z,6.1
2023-04-25T21:57:44.156Z,6
2023-04-25T22:02:50.281Z,5.9
2023-04-25T22:07:56.342Z,5.8
2023-04-25T22:13:02.477Z,5.8
2023-04-25T22:18:08.545Z,5.7
2023-04-25T22:23:14.637Z,5.7
2023-04-25T22:28:20.725Z,5.6
2023-04-25T22:33:26.910Z,5.6
2023-04-25T22:38:32.029Z,5.5
2023-04-25T22:43:38.068Z,5.4
2023-04-25T22:48:44.263Z,5.4
2023-04-25T22:53:50.256Z,5.2
2023-04-25T22:58:56.320Z,5.1
2023-04-25T23:04:02.424Z,5
2023-04-25T23:09:08.525Z,4.8
2023-04-25T23:14:14.758Z,4.6
2023-04-25T23:19:20.724Z,4.6
2023-04-25T23:24:26.837Z,4.5
2023-04-25T23:29:33.002Z,4.5
2023-04-25T23:34:39.093Z,4.5
2023-04-25T23:39:45.166Z,4.4
2023-04-25T23:44:50.238Z,4.5
2023-04-25T23:49:56.417Z,4.4
2023-04-25T23:55:02.448Z,4.3
